sensor_id;sensor_type;location;lat;lon;timestamp;temperature;humidity
65404;DHT22;52014;52.088;5.096;2022-08-21T00:01:05;18.50;99.90
65404;DHT22;52014;52.088;5.096;2022-08-21T00:03:31;18.50;99.90
65404;DHT22;52014;52.088;5.096;2022-08-21T00:05:57;18.50;99.90
65404;DHT22;52014;52.088;5.096;2022-08-21T00:08:22;18.40;99.90
65404;DHT22;52014;52.088;5.096;2022-08-21T00:10:48;18.40;99.90
65404;DHT22;52014;52.088;5.096;2022-08-21T00:13:14;18.40;99.90
65404;DHT22;52014;52.088;5.096;2022-08-21T00:15:41;18.40;99.90
65404;DHT22;52014;52.088;5.096;2022-08-21T00:18:08;18.40;99.90
65404;DHT22;52014;52.088;5.096;2022-08-21T00:20:34;18.40;99.90
65404;DHT22;52014;52.088;5.096;2022-08-21T00:23:00;18.40;99.90
65404;DHT22;52014;52.088;5.096;2022-08-21T00:25:26;18.40;99.90
65404;DHT22;52014;52.088;5.096;2022-08-21T00:27:52;18.30;99.90
65404;DHT22;52014;52.088;5.096;2022-08-21T00:30:18;18.30;99.90
65404;DHT22;52014;52.088;5.096;2022-08-21T00:32:44;18.20;99.90
65404;DHT22;52014;52.088;5.096;2022-08-21T00:35:12;18.30;99.90
65404;DHT22;52014;52.088;5.096;2022-08-21T00:37:38;18.30;99.90
65404;DHT22;52014;52.088;5.096;2022-08-21T00:40:06;18.20;99.90
65404;DHT22;52014;52.088;5.096;2022-08-21T00:42:31;18.30;99.90
65404;DHT22;52014;52.088;5.096;2022-08-21T00:44:57;18.20;99.90
65404;DHT22;52014;52.088;5.096;2022-08-21T00:47:23;18.20;99.90
65404;DHT22;52014;52.088;5.096;2022-08-21T00:49:48;18.20;99.90
65404;DHT22;52014;52.088;5.096;2022-08-21T00:52:16;18.20;99.90
65404;DHT22;52014;52.088;5.096;2022-08-21T00:54:42;18.10;99.90
65404;DHT22;52014;52.088;5.096;2022-08-21T00:57:09;18.10;99.90
65404;DHT22;52014;52.088;5.096;2022-08-21T00:59:36;18.10;99.90
65404;DHT22;52014;52.088;5.096;2022-08-21T01:02:03;18.10;99.90
65404;DHT22;52014;52.088;5.096;2022-08-21T01:04:29;18.10;99.90
65404;DHT22;52014;52.088;5.096;2022-08-21T01:06:55;18.10;99.90
65404;DHT22;52014;52.088;5.096;2022-08-21T01:09:21;18.10;99.90
65404;DHT22;52014;52.088;5.096;2022-08-21T01:11:46;18.10;99.90
65404;DHT22;52014;52.088;5.096;2022-08-21T01:14:12;18.00;99.90
65404;DHT22;52014;52.088;5.096;2022-08-21T01:16:43;18.00;99.90
65404;DHT22;52014;52.088;5.096;2022-08-21T01:19:09;18.00;99.90
65404;DHT22;52014;52.088;5.096;2022-08-21T01:21:36;18.00;99.90
65404;DHT22;52014;52.088;5.096;2022-08-21T01:24:01;18.00;99.90
65404;DHT22;52014;52.088;5.096;2022-08-21T01:26:29;18.00;99.90
65404;DHT22;52014;52.088;5.096;2022-08-21T01:29:38;18.00;99.90
65404;DHT22;52014;52.088;5.096;2022-08-21T01:31:43;18.10;99.90
65404;DHT22;52014;52.088;5.096;2022-08-21T01:34:09;18.00;99.90
65404;DHT22;52014;52.088;5.096;2022-08-21T01:36:34;18.00;99.90
65404;DHT22;52014;52.088;5.096;2022-08-21T01:39:00;18.00;99.90
65404;DHT22;52014;52.088;5.096;2022-08-21T01:41:25;18.00;99.90
65404;DHT22;52014;52.088;5.096;2022-08-21T01:43:51;18.00;99.90
65404;DHT22;52014;52.088;5.096;2022-08-21T01:46:16;18.00;99.90
65404;DHT22;52014;52.088;5.096;2022-08-21T01:48:42;17.90;99.90
65404;DHT22;52014;52.088;5.096;2022-08-21T01:51:07;17.90;99.90
65404;DHT22;52014;52.088;5.096;2022-08-21T01:53:34;18.00;99.90
65404;DHT22;52014;52.088;5.096;2022-08-21T01:56:03;17.90;99.90
65404;DHT22;52014;52.088;5.096;2022-08-21T01:58:29;17.80;99.90
65404;DHT22;52014;52.088;5.096;2022-08-21T02:00:54;17.90;99.90
65404;DHT22;52014;52.088;5.096;2022-08-21T02:03:20;17.90;99.90
65404;DHT22;52014;52.088;5.096;2022-08-21T02:05:45;17.80;99.90
65404;DHT22;52014;52.088;5.096;2022-08-21T02:08:11;17.80;99.90
65404;DHT22;52014;52.088;5.096;2022-08-21T02:10:36;17.80;99.90
65404;DHT22;52014;52.088;5.096;2022-08-21T02:13:02;17.80;99.90
65404;DHT22;52014;52.088;5.096;2022-08-21T02:15:28;17.80;99.90
65404;DHT22;52014;52.088;5.096;2022-08-21T02:17:55;17.80;99.90
65404;DHT22;52014;52.088;5.096;2022-08-21T02:20:23;17.70;99.90
65404;DHT22;52014;52.088;5.096;2022-08-21T02:22:49;17.70;99.90
65404;DHT22;52014;52.088;5.096;2022-08-21T02:25:15;17.70;99.90
65404;DHT22;52014;52.088;5.096;2022-08-21T02:27:41;17.70;99.90
65404;DHT22;52014;52.088;5.096;2022-08-21T02:30:08;17.70;99.90
65404;DHT22;52014;52.088;5.096;2022-08-21T02:32:35;17.60;99.90
65404;DHT22;52014;52.088;5.096;2022-08-21T02:35:00;17.70;99.90
65404;DHT22;52014;52.088;5.096;2022-08-21T02:37:26;17.70;99.90
65404;DHT22;52014;52.088;5.096;2022-08-21T02:39:51;17.70;99.90
65404;DHT22;52014;52.088;5.096;2022-08-21T02:42:17;17.70;99.90
65404;DHT22;52014;52.088;5.096;2022-08-21T02:44:43;17.70;99.90
65404;DHT22;52014;52.088;5.096;2022-08-21T02:47:08;17.70;99.90
65404;DHT22;52014;52.088;5.096;2022-08-21T02:49:34;17.60;99.90
65404;DHT22;52014;52.088;5.096;2022-08-21T02:51:59;17.60;99.90
65404;DHT22;52014;52.088;5.096;2022-08-21T02:54:25;17.60;99.90
65404;DHT22;52014;52.088;5.096;2022-08-21T02:56:50;17.60;99.90
65404;DHT22;52014;52.088;5.096;2022-08-21T02:59:16;17.50;99.90
65404;DHT22;52014;52.088;5.096;2022-08-21T03:01:41;17.50;99.90
65404;DHT22;52014;52.088;5.096;2022-08-21T03:04:07;17.50;99.90
65404;DHT22;52014;52.088;5.096;2022-08-21T03:06:33;17.50;99.90
65404;DHT22;52014;52.088;5.096;2022-08-21T03:08:59;17.50;99.90
65404;DHT22;52014;52.088;5.096;2022-08-21T03:11:24;17.50;99.90
65404;DHT22;52014;52.088;5.096;2022-08-21T03:13:51;17.40;99.90
65404;DHT22;52014;52.088;5.096;2022-08-21T03:16:17;17.50;99.90
65404;DHT22;52014;52.088;5.096;2022-08-21T03:18:44;17.40;99.90
65404;DHT22;52014;52.088;5.096;2022-08-21T03:21:10;17.40;99.90
65404;DHT22;52014;52.088;5.096;2022-08-21T03:23:36;17.40;99.90
65404;DHT22;52014;52.088;5.096;2022-08-21T03:26:01;17.40;99.90
65404;DHT22;52014;52.088;5.096;2022-08-21T03:28:27;17.40;99.90
65404;DHT22;52014;52.088;5.096;2022-08-21T03:30:53;17.30;99.90
65404;DHT22;52014;52.088;5.096;2022-08-21T03:33:18;17.40;99.90
65404;DHT22;52014;52.088;5.096;2022-08-21T03:35:45;17.30;99.90
65404;DHT22;52014;52.088;5.096;2022-08-21T03:38:11;17.40;99.90
65404;DHT22;52014;52.088;5.096;2022-08-21T03:40:38;17.40;99.90
65404;DHT22;52014;52.088;5.096;2022-08-21T03:43:03;17.30;99.90
65404;DHT22;52014;52.088;5.096;2022-08-21T03:45:29;17.30;99.90
65404;DHT22;52014;52.088;5.096;2022-08-21T03:47:58;17.30;99.90
65404;DHT22;52014;52.088;5.096;2022-08-21T03:50:25;17.30;99.90
65404;DHT22;52014;52.088;5.096;2022-08-21T03:52:51;17.30;99.90
65404;DHT22;52014;52.088;5.096;2022-08-21T03:55:16;17.20;99.90
65404;DHT22;52014;52.088;5.096;2022-08-21T03:57:42;17.10;99.90
65404;DHT22;52014;52.088;5.096;2022-08-21T04:00:08;17.10;99.90
65404;DHT22;52014;52.088;5.096;2022-08-21T04:02:36;17.10;99.90
65404;DHT22;52014;52.088;5.096;2022-08-21T04:05:02;17.10;99.90
65404;DHT22;52014;52.088;5.096;2022-08-21T04:07:27;17.10;99.90
65404;DHT22;52014;52.088;5.096;2022-08-21T04:09:53;17.10;99.90
65404;DHT22;52014;52.088;5.096;2022-08-21T04:12:18;17.20;99.90
65404;DHT22;52014;52.088;5.096;2022-08-21T04:14:44;17.10;99.90
65404;DHT22;52014;52.088;5.096;2022-08-21T04:17:09;17.10;99.90
65404;DHT22;52014;52.088;5.096;2022-08-21T04:19:35;17.20;99.90
65404;DHT22;52014;52.088;5.096;2022-08-21T04:22:00;17.20;99.90
65404;DHT22;52014;52.088;5.096;2022-08-21T04:24:26;17.10;99.90
65404;DHT22;52014;52.088;5.096;2022-08-21T04:26:51;17.10;99.90
65404;DHT22;52014;52.088;5.096;2022-08-21T04:29:17;17.00;99.90
65404;DHT22;52014;52.088;5.096;2022-08-21T04:31:42;17.00;99.90
65404;DHT22;52014;52.088;5.096;2022-08-21T04:34:09;17.00;99.90
65404;DHT22;52014;52.088;5.096;2022-08-21T04:36:34;17.00;99.90
65404;DHT22;52014;52.088;5.096;2022-08-21T04:39:00;17.00;99.90
65404;DHT22;52014;52.088;5.096;2022-08-21T04:41:25;17.10;99.90
65404;DHT22;52014;52.088;5.096;2022-08-21T04:43:51;17.00;99.90
65404;DHT22;52014;52.088;5.096;2022-08-21T04:46:16;17.00;99.90
65404;DHT22;52014;52.088;5.096;2022-08-21T04:48:42;17.00;99.90
65404;DHT22;52014;52.088;5.096;2022-08-21T04:51:22;17.10;99.90
65404;DHT22;52014;52.088;5.096;2022-08-21T04:53:52;16.90;99.90
65404;DHT22;52014;52.088;5.096;2022-08-21T04:56:20;17.00;99.90
65404;DHT22;52014;52.088;5.096;2022-08-21T04:58:46;17.00;99.90
65404;DHT22;52014;52.088;5.096;2022-08-21T05:01:15;17.10;99.90
65404;DHT22;52014;52.088;5.096;2022-08-21T05:03:42;17.20;99.90
65404;DHT22;52014;52.088;5.096;2022-08-21T05:06:08;17.20;99.90
65404;DHT22;52014;52.088;5.096;2022-08-21T05:08:35;17.20;99.90
65404;DHT22;52014;52.088;5.096;2022-08-21T05:11:02;17.20;99.90
65404;DHT22;52014;52.088;5.096;2022-08-21T05:13:27;17.20;99.90
65404;DHT22;52014;52.088;5.096;2022-08-21T05:15:53;17.20;99.90
65404;DHT22;52014;52.088;5.096;2022-08-21T05:18:18;17.20;99.90
65404;DHT22;52014;52.088;5.096;2022-08-21T05:20:44;17.20;99.90
65404;DHT22;52014;52.088;5.096;2022-08-21T05:23:11;17.10;99.90
65404;DHT22;52014;52.088;5.096;2022-08-21T05:25:37;17.20;99.90
65404;DHT22;52014;52.088;5.096;2022-08-21T05:28:03;17.40;99.90
65404;DHT22;52014;52.088;5.096;2022-08-21T05:30:29;17.60;99.90
65404;DHT22;52014;52.088;5.096;2022-08-21T05:33:00;17.70;99.90
65404;DHT22;52014;52.088;5.096;2022-08-21T05:35:27;17.80;99.90
65404;DHT22;52014;52.088;5.096;2022-08-21T05:38:03;17.80;99.90
65404;DHT22;52014;52.088;5.096;2022-08-21T05:40:29;18.10;99.90
65404;DHT22;52014;52.088;5.096;2022-08-21T05:42:55;18.10;99.90
65404;DHT22;52014;52.088;5.096;2022-08-21T05:45:24;18.30;99.90
65404;DHT22;52014;52.088;5.096;2022-08-21T05:47:50;18.30;99.90
65404;DHT22;52014;52.088;5.096;2022-08-21T05:50:15;18.40;99.90
65404;DHT22;52014;52.088;5.096;2022-08-21T05:52:41;18.50;99.90
65404;DHT22;52014;52.088;5.096;2022-08-21T05:55:06;18.60;99.90
65404;DHT22;52014;52.088;5.096;2022-08-21T05:57:32;18.60;99.90
65404;DHT22;52014;52.088;5.096;2022-08-21T05:59:57;18.50;99.90
65404;DHT22;52014;52.088;5.096;2022-08-21T06:02:23;18.70;99.90
65404;DHT22;52014;52.088;5.096;2022-08-21T06:04:49;18.80;99.90
65404;DHT22;52014;52.088;5.096;2022-08-21T06:07:14;18.90;99.90
65404;DHT22;52014;52.088;5.096;2022-08-21T06:09:40;19.10;99.90
65404;DHT22;52014;52.088;5.096;2022-08-21T06:12:06;19.10;99.90
65404;DHT22;52014;52.088;5.096;2022-08-21T06:14:33;19.20;99.90
65404;DHT22;52014;52.088;5.096;2022-08-21T06:17:06;19.30;99.90
65404;DHT22;52014;52.088;5.096;2022-08-21T06:19:31;19.40;99.90
65404;DHT22;52014;52.088;5.096;2022-08-21T06:21:57;19.40;99.90
65404;DHT22;52014;52.088;5.096;2022-08-21T06:24:23;19.60;99.90
65404;DHT22;52014;52.088;5.096;2022-08-21T06:26:48;19.50;99.90
65404;DHT22;52014;52.088;5.096;2022-08-21T06:29:14;19.60;99.90
65404;DHT22;52014;52.088;5.096;2022-08-21T06:31:42;19.80;99.90
65404;DHT22;52014;52.088;5.096;2022-08-21T06:34:07;20.00;99.90
65404;DHT22;52014;52.088;5.096;2022-08-21T06:36:33;20.00;99.90
65404;DHT22;52014;52.088;5.096;2022-08-21T06:38:59;20.20;99.90
65404;DHT22;52014;52.088;5.096;2022-08-21T06:41:24;20.20;99.90
65404;DHT22;52014;52.088;5.096;2022-08-21T06:43:50;20.20;99.90
65404;DHT22;52014;52.088;5.096;2022-08-21T06:46:15;20.30;99.90
65404;DHT22;52014;52.088;5.096;2022-08-21T06:48:41;20.50;99.90
65404;DHT22;52014;52.088;5.096;2022-08-21T06:51:06;20.50;99.90
65404;DHT22;52014;52.088;5.096;2022-08-21T06:53:32;20.70;99.90
65404;DHT22;52014;52.088;5.096;2022-08-21T06:55:58;20.90;99.90
65404;DHT22;52014;52.088;5.096;2022-08-21T06:58:23;20.90;99.90
65404;DHT22;52014;52.088;5.096;2022-08-21T07:00:49;21.00;99.90
65404;DHT22;52014;52.088;5.096;2022-08-21T07:03:35;21.10;99.90
65404;DHT22;52014;52.088;5.096;2022-08-21T07:06:01;21.20;99.90
65404;DHT22;52014;52.088;5.096;2022-08-21T07:08:27;21.10;99.90
65404;DHT22;52014;52.088;5.096;2022-08-21T07:10:53;21.20;99.90
65404;DHT22;52014;52.088;5.096;2022-08-21T07:13:20;21.30;99.90
65404;DHT22;52014;52.088;5.096;2022-08-21T07:15:45;21.40;99.90
65404;DHT22;52014;52.088;5.096;2022-08-21T07:18:11;21.50;99.90
65404;DHT22;52014;52.088;5.096;2022-08-21T07:20:38;21.50;99.90
65404;DHT22;52014;52.088;5.096;2022-08-21T07:23:05;21.60;99.90
65404;DHT22;52014;52.088;5.096;2022-08-21T07:25:31;21.80;99.90
65404;DHT22;52014;52.088;5.096;2022-08-21T07:27:56;21.90;99.90
65404;DHT22;52014;52.088;5.096;2022-08-21T07:30:22;22.00;99.90
65404;DHT22;52014;52.088;5.096;2022-08-21T07:32:48;22.10;99.90
65404;DHT22;52014;52.088;5.096;2022-08-21T07:35:17;21.90;99.90
65404;DHT22;52014;52.088;5.096;2022-08-21T07:37:43;22.10;99.90
65404;DHT22;52014;52.088;5.096;2022-08-21T07:40:08;22.20;99.90
65404;DHT22;52014;52.088;5.096;2022-08-21T07:42:34;22.30;99.90
65404;DHT22;52014;52.088;5.096;2022-08-21T07:44:59;22.10;99.90
65404;DHT22;52014;52.088;5.096;2022-08-21T07:47:25;22.00;99.90
65404;DHT22;52014;52.088;5.096;2022-08-21T07:49:50;22.00;99.90
65404;DHT22;52014;52.088;5.096;2022-08-21T07:52:16;22.00;99.90
65404;DHT22;52014;52.088;5.096;2022-08-21T07:54:42;21.90;99.90
65404;DHT22;52014;52.088;5.096;2022-08-21T07:57:07;21.60;99.90
65404;DHT22;52014;52.088;5.096;2022-08-21T07:59:32;21.80;99.90
65404;DHT22;52014;52.088;5.096;2022-08-21T08:01:58;22.20;99.90
65404;DHT22;52014;52.088;5.096;2022-08-21T08:04:24;22.50;99.90
65404;DHT22;52014;52.088;5.096;2022-08-21T08:06:49;22.60;99.90
65404;DHT22;52014;52.088;5.096;2022-08-21T08:09:15;22.70;99.90
65404;DHT22;52014;52.088;5.096;2022-08-21T08:11:42;22.70;99.90
65404;DHT22;52014;52.088;5.096;2022-08-21T08:14:10;22.70;99.90
65404;DHT22;52014;52.088;5.096;2022-08-21T08:16:36;22.50;99.90
65404;DHT22;52014;52.088;5.096;2022-08-21T08:19:02;22.40;99.90
65404;DHT22;52014;52.088;5.096;2022-08-21T08:21:28;22.50;99.90
65404;DHT22;52014;52.088;5.096;2022-08-21T08:23:53;22.60;99.90
65404;DHT22;52014;52.088;5.096;2022-08-21T08:26:19;22.90;99.90
65404;DHT22;52014;52.088;5.096;2022-08-21T08:28:45;23.10;99.90
65404;DHT22;52014;52.088;5.096;2022-08-21T08:31:12;23.20;99.90
65404;DHT22;52014;52.088;5.096;2022-08-21T08:33:38;23.40;99.90
65404;DHT22;52014;52.088;5.096;2022-08-21T08:36:04;23.30;99.90
65404;DHT22;52014;52.088;5.096;2022-08-21T08:38:29;23.20;99.90
65404;DHT22;52014;52.088;5.096;2022-08-21T08:43:25;23.20;99.90
65404;DHT22;52014;52.088;5.096;2022-08-21T08:45:50;23.20;99.90
65404;DHT22;52014;52.088;5.096;2022-08-21T08:48:30;23.30;99.90
65404;DHT22;52014;52.088;5.096;2022-08-21T08:50:56;23.10;99.90
65404;DHT22;52014;52.088;5.096;2022-08-21T08:53:27;23.20;99.90
65404;DHT22;52014;52.088;5.096;2022-08-21T08:55:54;23.30;99.90
65404;DHT22;52014;52.088;5.096;2022-08-21T08:58:28;23.30;99.90
65404;DHT22;52014;52.088;5.096;2022-08-21T09:00:55;23.40;99.90
65404;DHT22;52014;52.088;5.096;2022-08-21T09:03:24;23.30;99.90
65404;DHT22;52014;52.088;5.096;2022-08-21T09:11:03;23.20;99.90
65404;DHT22;52014;52.088;5.096;2022-08-21T09:16:16;23.90;99.90
65404;DHT22;52014;52.088;5.096;2022-08-21T09:23:53;23.50;99.90
65404;DHT22;52014;52.088;5.096;2022-08-21T09:26:21;23.50;99.90
65404;DHT22;52014;52.088;5.096;2022-08-21T09:28:51;23.30;99.90
65404;DHT22;52014;52.088;5.096;2022-08-21T09:31:24;23.40;99.90
65404;DHT22;52014;52.088;5.096;2022-08-21T09:33:56;23.60;99.90
65404;DHT22;52014;52.088;5.096;2022-08-21T09:36:24;23.80;99.90
65404;DHT22;52014;52.088;5.096;2022-08-21T09:38:53;23.90;99.90
65404;DHT22;52014;52.088;5.096;2022-08-21T09:41:26;23.80;99.90
65404;DHT22;52014;52.088;5.096;2022-08-21T09:43:52;23.60;99.90
65404;DHT22;52014;52.088;5.096;2022-08-21T09:46:21;23.50;99.90
65404;DHT22;52014;52.088;5.096;2022-08-21T09:48:51;23.80;99.90
65404;DHT22;52014;52.088;5.096;2022-08-21T09:51:19;23.60;99.90
65404;DHT22;52014;52.088;5.096;2022-08-21T09:53:46;23.30;99.90
65404;DHT22;52014;52.088;5.096;2022-08-21T09:56:26;23.20;99.90
65404;DHT22;52014;52.088;5.096;2022-08-21T09:59:14;23.10;99.90
65404;DHT22;52014;52.088;5.096;2022-08-21T10:01:45;23.00;99.90
65404;DHT22;52014;52.088;5.096;2022-08-21T10:04:11;23.00;99.90
65404;DHT22;52014;52.088;5.096;2022-08-21T10:06:36;23.40;99.90
65404;DHT22;52014;52.088;5.096;2022-08-21T10:09:10;23.50;99.90
65404;DHT22;52014;52.088;5.096;2022-08-21T10:11:36;23.70;99.70
65404;DHT22;52014;52.088;5.096;2022-08-21T10:17:17;24.30;95.80
65404;DHT22;52014;52.088;5.096;2022-08-21T10:30:32;24.00;96.50
65404;DHT22;52014;52.088;5.096;2022-08-21T10:43:42;25.00;86.60
65404;DHT22;52014;52.088;5.096;2022-08-21T10:48:57;25.40;81.40
65404;DHT22;52014;52.088;5.096;2022-08-21T10:53:59;25.30;74.20
65404;DHT22;52014;52.088;5.096;2022-08-21T10:56:31;25.30;71.10
65404;DHT22;52014;52.088;5.096;2022-08-21T10:59:20;25.20;74.70
65404;DHT22;52014;52.088;5.096;2022-08-21T11:06:58;25.00;76.50
65404;DHT22;52014;52.088;5.096;2022-08-21T11:09:25;24.80;79.50
65404;DHT22;52014;52.088;5.096;2022-08-21T11:11:53;24.90;78.50
65404;DHT22;52014;52.088;5.096;2022-08-21T11:14:24;24.60;83.30
65404;DHT22;52014;52.088;5.096;2022-08-21T11:16:53;24.30;87.10
65404;DHT22;52014;52.088;5.096;2022-08-21T11:19:24;24.30;87.00
65404;DHT22;52014;52.088;5.096;2022-08-21T11:24:33;24.10;89.50
65404;DHT22;52014;52.088;5.096;2022-08-21T11:29:30;24.30;88.70
65404;DHT22;52014;52.088;5.096;2022-08-21T11:32:00;24.50;87.90
65404;DHT22;52014;52.088;5.096;2022-08-21T11:37:01;24.60;82.10
65404;DHT22;52014;52.088;5.096;2022-08-21T11:39:41;24.60;84.50
65404;DHT22;52014;52.088;5.096;2022-08-21T11:44:47;24.80;81.70
65404;DHT22;52014;52.088;5.096;2022-08-21T11:47:25;24.70;79.50
65404;DHT22;52014;52.088;5.096;2022-08-21T11:50:15;24.70;79.80
65404;DHT22;52014;52.088;5.096;2022-08-21T11:52:43;24.50;81.00
65404;DHT22;52014;52.088;5.096;2022-08-21T11:55:14;24.50;81.60
65404;DHT22;52014;52.088;5.096;2022-08-21T12:00:11;24.60;81.20
65404;DHT22;52014;52.088;5.096;2022-08-21T12:02:38;24.80;79.60
65404;DHT22;52014;52.088;5.096;2022-08-21T12:05:08;24.80;72.60
65404;DHT22;52014;52.088;5.096;2022-08-21T12:07:36;24.80;74.70
65404;DHT22;52014;52.088;5.096;2022-08-21T12:10:03;24.50;77.20
65404;DHT22;52014;52.088;5.096;2022-08-21T12:12:31;24.50;79.10
65404;DHT22;52014;52.088;5.096;2022-08-21T12:17:50;24.80;77.60
65404;DHT22;52014;52.088;5.096;2022-08-21T12:22:49;25.20;73.30
65404;DHT22;52014;52.088;5.096;2022-08-21T12:25:16;25.10;71.00
65404;DHT22;52014;52.088;5.096;2022-08-21T12:27:47;25.00;71.90
65404;DHT22;52014;52.088;5.096;2022-08-21T12:32:55;24.80;76.80
65404;DHT22;52014;52.088;5.096;2022-08-21T12:35:23;24.60;78.50
65404;DHT22;52014;52.088;5.096;2022-08-21T12:37:52;24.50;79.70
65404;DHT22;52014;52.088;5.096;2022-08-21T12:40:31;24.40;79.80
65404;DHT22;52014;52.088;5.096;2022-08-21T12:43:02;24.30;80.10
65404;DHT22;52014;52.088;5.096;2022-08-21T12:45:47;24.20;80.00
65404;DHT22;52014;52.088;5.096;2022-08-21T12:48:15;24.00;80.00
65404;DHT22;52014;52.088;5.096;2022-08-21T12:53:17;24.30;79.70
65404;DHT22;52014;52.088;5.096;2022-08-21T12:55:46;24.50;79.20
65404;DHT22;52014;52.088;5.096;2022-08-21T12:58:22;24.40;75.70
65404;DHT22;52014;52.088;5.096;2022-08-21T13:01:07;24.40;77.40
65404;DHT22;52014;52.088;5.096;2022-08-21T13:03:35;24.50;78.90
65404;DHT22;52014;52.088;5.096;2022-08-21T13:06:04;24.50;76.80
65404;DHT22;52014;52.088;5.096;2022-08-21T13:08:30;24.60;77.20
65404;DHT22;52014;52.088;5.096;2022-08-21T13:11:03;24.70;75.50
65404;DHT22;52014;52.088;5.096;2022-08-21T13:13:29;24.80;77.20
65404;DHT22;52014;52.088;5.096;2022-08-21T13:16:03;24.60;71.50
65404;DHT22;52014;52.088;5.096;2022-08-21T13:18:30;24.60;74.30
65404;DHT22;52014;52.088;5.096;2022-08-21T13:21:06;24.70;71.80
65404;DHT22;52014;52.088;5.096;2022-08-21T13:23:33;24.60;74.40
65404;DHT22;52014;52.088;5.096;2022-08-21T13:25:59;24.40;73.60
65404;DHT22;52014;52.088;5.096;2022-08-21T13:28:31;24.30;74.20
65404;DHT22;52014;52.088;5.096;2022-08-21T13:30:58;24.20;75.90
65404;DHT22;52014;52.088;5.096;2022-08-21T13:33:25;24.20;76.40
65404;DHT22;52014;52.088;5.096;2022-08-21T13:38:46;24.20;75.60
65404;DHT22;52014;52.088;5.096;2022-08-21T13:41:27;24.20;75.10
65404;DHT22;52014;52.088;5.096;2022-08-21T13:44:13;24.20;75.60
65404;DHT22;52014;52.088;5.096;2022-08-21T13:46:39;24.20;76.80
65404;DHT22;52014;52.088;5.096;2022-08-21T13:49:05;24.30;73.20
65404;DHT22;52014;52.088;5.096;2022-08-21T13:51:31;24.30;70.10
65404;DHT22;52014;52.088;5.096;2022-08-21T13:53:57;24.20;70.30
65404;DHT22;52014;52.088;5.096;2022-08-21T13:56:27;24.10;71.70
65404;DHT22;52014;52.088;5.096;2022-08-21T13:58:53;24.20;70.10
65404;DHT22;52014;52.088;5.096;2022-08-21T14:03:48;24.30;69.10
65404;DHT22;52014;52.088;5.096;2022-08-21T14:06:15;24.40;69.90
65404;DHT22;52014;52.088;5.096;2022-08-21T14:08:41;24.50;67.60
65404;DHT22;52014;52.088;5.096;2022-08-21T14:11:09;24.60;63.20
65404;DHT22;52014;52.088;5.096;2022-08-21T14:16:12;24.60;59.90
65404;DHT22;52014;52.088;5.096;2022-08-21T14:18:45;24.70;58.80
65404;DHT22;52014;52.088;5.096;2022-08-21T14:21:11;24.70;61.60
65404;DHT22;52014;52.088;5.096;2022-08-21T14:23:37;24.60;57.80
65404;DHT22;52014;52.088;5.096;2022-08-21T14:26:04;24.30;54.40
65404;DHT22;52014;52.088;5.096;2022-08-21T14:28:31;24.30;59.90
65404;DHT22;52014;52.088;5.096;2022-08-21T14:30:57;24.30;60.10
65404;DHT22;52014;52.088;5.096;2022-08-21T14:33:27;24.30;63.00
65404;DHT22;52014;52.088;5.096;2022-08-21T14:35:53;24.20;63.90
65404;DHT22;52014;52.088;5.096;2022-08-21T14:38:20;24.30;65.10
65404;DHT22;52014;52.088;5.096;2022-08-21T14:40:47;24.20;65.60
65404;DHT22;52014;52.088;5.096;2022-08-21T14:43:13;24.20;63.40
65404;DHT22;52014;52.088;5.096;2022-08-21T14:45:39;24.10;62.00
65404;DHT22;52014;52.088;5.096;2022-08-21T14:48:06;24.10;60.70
65404;DHT22;52014;52.088;5.096;2022-08-21T14:50:32;24.00;59.50
65404;DHT22;52014;52.088;5.096;2022-08-21T14:52:57;23.90;60.20
65404;DHT22;52014;52.088;5.096;2022-08-21T14:55:23;23.90;58.80
65404;DHT22;52014;52.088;5.096;2022-08-21T14:57:49;24.00;58.70
65404;DHT22;52014;52.088;5.096;2022-08-21T15:00:17;24.00;58.70
65404;DHT22;52014;52.088;5.096;2022-08-21T15:02:43;23.90;60.00
65404;DHT22;52014;52.088;5.096;2022-08-21T15:05:08;23.90;60.20
65404;DHT22;52014;52.088;5.096;2022-08-21T15:07:34;23.80;60.60
65404;DHT22;52014;52.088;5.096;2022-08-21T15:09:59;23.80;61.70
65404;DHT22;52014;52.088;5.096;2022-08-21T15:12:25;23.80;62.50
65404;DHT22;52014;52.088;5.096;2022-08-21T15:14:50;23.80;61.80
65404;DHT22;52014;52.088;5.096;2022-08-21T15:17:16;23.70;61.50
65404;DHT22;52014;52.088;5.096;2022-08-21T15:19:42;23.70;61.60
65404;DHT22;52014;52.088;5.096;2022-08-21T15:22:08;23.70;63.30
65404;DHT22;52014;52.088;5.096;2022-08-21T15:24:35;23.70;62.40
65404;DHT22;52014;52.088;5.096;2022-08-21T15:27:02;23.60;64.30
65404;DHT22;52014;52.088;5.096;2022-08-21T15:29:29;23.50;64.30
65404;DHT22;52014;52.088;5.096;2022-08-21T15:31:56;23.60;63.80
65404;DHT22;52014;52.088;5.096;2022-08-21T15:34:22;23.50;63.90
65404;DHT22;52014;52.088;5.096;2022-08-21T15:36:47;23.50;64.20
65404;DHT22;52014;52.088;5.096;2022-08-21T15:39:13;23.50;64.40
65404;DHT22;52014;52.088;5.096;2022-08-21T15:41:39;23.50;67.60
65404;DHT22;52014;52.088;5.096;2022-08-21T15:44:04;23.50;68.30
65404;DHT22;52014;52.088;5.096;2022-08-21T15:46:30;23.40;71.70
65404;DHT22;52014;52.088;5.096;2022-08-21T15:48:56;23.50;73.40
65404;DHT22;52014;52.088;5.096;2022-08-21T15:51:21;23.50;73.40
65404;DHT22;52014;52.088;5.096;2022-08-21T15:53:47;23.50;73.30
65404;DHT22;52014;52.088;5.096;2022-08-21T15:56:25;23.50;74.00
65404;DHT22;52014;52.088;5.096;2022-08-21T15:58:52;23.30;73.80
65404;DHT22;52014;52.088;5.096;2022-08-21T16:01:19;23.40;74.30
65404;DHT22;52014;52.088;5.096;2022-08-21T16:03:45;23.50;74.10
65404;DHT22;52014;52.088;5.096;2022-08-21T16:06:12;23.50;74.80
65404;DHT22;52014;52.088;5.096;2022-08-21T16:08:38;23.50;75.20
65404;DHT22;52014;52.088;5.096;2022-08-21T16:11:03;23.50;73.20
65404;DHT22;52014;52.088;5.096;2022-08-21T16:13:29;23.40;72.40
65404;DHT22;52014;52.088;5.096;2022-08-21T16:15:57;23.50;73.60
65404;DHT22;52014;52.088;5.096;2022-08-21T16:18:22;23.40;73.60
65404;DHT22;52014;52.088;5.096;2022-08-21T16:20:48;23.40;71.80
65404;DHT22;52014;52.088;5.096;2022-08-21T16:23:14;23.40;72.50
65404;DHT22;52014;52.088;5.096;2022-08-21T16:25:39;23.40;72.00
65404;DHT22;52014;52.088;5.096;2022-08-21T16:28:06;23.40;71.60
65404;DHT22;52014;52.088;5.096;2022-08-21T16:30:32;23.40;72.10
65404;DHT22;52014;52.088;5.096;2022-08-21T16:32:59;23.40;71.80
65404;DHT22;52014;52.088;5.096;2022-08-21T16:35:25;23.30;72.60
65404;DHT22;52014;52.088;5.096;2022-08-21T16:37:50;23.30;73.10
65404;DHT22;52014;52.088;5.096;2022-08-21T16:40:16;23.40;73.30
65404;DHT22;52014;52.088;5.096;2022-08-21T16:42:42;23.30;71.50
65404;DHT22;52014;52.088;5.096;2022-08-21T16:45:10;23.30;72.60
65404;DHT22;52014;52.088;5.096;2022-08-21T16:47:35;23.30;73.50
65404;DHT22;52014;52.088;5.096;2022-08-21T16:50:02;23.20;73.00
65404;DHT22;52014;52.088;5.096;2022-08-21T16:52:29;23.20;74.80